createdAt,value
2023-05-06T00:00:56.528Z,66.53
2023-05-06T00:03:23.014Z,66.15
2023-05-06T00:05:49.633Z,66.21
2023-05-06T00:08:16.300Z,66.18
2023-05-06T00:10:42.718Z,66.63
2023-05-06T00:13:09.213Z,66.96
2023-05-06T00:15:36.305Z,67.17
2023-05-06T00:18:02.816Z,66.84
2023-05-06T00:20:29.331Z,66.64
2023-05-06T00:22:55.830Z,66.59
2023-05-06T00:25:22.224Z,67.46
2023-05-06T00:27:48.636Z,66.99
2023-05-06T00:30:15.108Z,67.06
2023-05-06T00:32:41.630Z,66.69
2023-05-06T00:35:09.067Z,68.05
2023-05-06T00:37:35.705Z,67.11
2023-05-06T00:40:03.382Z,66.93
2023-05-06T00:42:29.777Z,66.68
2023-05-06T00:44:56.180Z,66.92
2023-05-06T00:47:22.751Z,67.23
2023-05-06T00:49:49.147Z,66.74
2023-05-06T00:52:15.589Z,67.07
2023-05-06T00:54:42.094Z,67.09
2023-05-06T00:57:08.516Z,66.96
2023-05-06T00:59:34.934Z,66.72
2023-05-06T01:02:01.487Z,67.28
2023-05-06T01:04:28.955Z,67.55
2023-05-06T01:06:58.566Z,67.50
2023-05-06T01:09:29.752Z,68.18
2023-05-06T01:12:21.172Z,67.41
2023-05-06T01:14:59.527Z,67.76
2023-05-06T01:17:27.889Z,66.81
2023-05-06T01:19:58.323Z,67.07
2023-05-06T01:22:24.927Z,67.83
2023-05-06T01:24:51.456Z,68.24
2023-05-06T01:27:18.214Z,68.17
2023-05-06T01:29:45.310Z,67.82
2023-05-06T01:32:45.699Z,67.68
2023-05-06T01:35:20.488Z,67.44
2023-05-06T01:38:00.191Z,67.38
2023-05-06T01:40:27.603Z,67.39
2023-05-06T01:42:54.055Z,67.62
2023-05-06T01:45:20.852Z,67.71
2023-05-06T01:47:47.400Z,67.52
2023-05-06T01:50:13.870Z,67.72
2023-05-06T01:52:40.275Z,67.75
2023-05-06T01:55:07.415Z,67.42
2023-05-06T01:57:34.206Z,67.50
2023-05-06T02:00:00.642Z,67.41
2023-05-06T02:02:27.133Z,67.90
2023-05-06T02:04:53.822Z,68.06
2023-05-06T02:07:20.267Z,67.95
2023-05-06T02:09:46.677Z,67.81
2023-05-06T02:12:13.083Z,67.83
2023-05-06T02:14:39.489Z,67.72
2023-05-06T02:17:05.975Z,67.24
2023-05-06T02:19:32.452Z,66.86
2023-05-06T02:21:58.856Z,67.06
2023-05-06T02:24:26.122Z,67.38
2023-05-06T02:26:52.533Z,66.80
2023-05-06T02:29:18.930Z,67.19
2023-05-06T02:31:45.448Z,67.04
2023-05-06T02:34:11.890Z,67.37
2023-05-06T02:36:38.348Z,67.12
2023-05-06T02:39:04.763Z,67.15
2023-05-06T02:41:31.199Z,66.84
2023-05-06T02:43:57.605Z,67.12
2023-05-06T02:46:24.073Z,67.32
2023-05-06T02:48:50.535Z,66.90
2023-05-06T02:51:17.020Z,67.32
2023-05-06T02:53:43.413Z,67.26
2023-05-06T02:56:09.806Z,67.59
2023-05-06T02:58:36.216Z,67.45
2023-05-06T03:01:02.706Z,67.58
2023-05-06T03:03:29.199Z,67.52
2023-05-06T03:05:55.627Z,66.83
2023-05-06T03:08:22.021Z,66.94
2023-05-06T03:10:48.476Z,67.24
2023-05-06T03:13:15.037Z,67.31
2023-05-06T03:15:41.618Z,67.22
2023-05-06T03:18:08.109Z,67.31
2023-05-06T03:20:34.618Z,67.59
2023-05-06T03:23:01.391Z,67.19
2023-05-06T03:25:27.814Z,67.26
2023-05-06T03:27:54.255Z,67.08
2023-05-06T03:30:20.888Z,67.15
2023-05-06T03:32:47.359Z,67.41
2023-05-06T03:35:13.820Z,67.04
2023-05-06T03:37:40.385Z,67.04
2023-05-06T03:40:07.733Z,66.88
2023-05-06T03:42:34.154Z,67.25
2023-05-06T03:45:00.622Z,67.39
2023-05-06T03:47:27.103Z,67.53
2023-05-06T03:49:53.745Z,67.70
2023-05-06T03:52:20.172Z,68.04
2023-05-06T03:54:46.561Z,67.98
2023-05-06T03:57:13.034Z,67.75
2023-05-06T03:59:39.461Z,68.25
2023-05-06T04:02:06.017Z,68.67
2023-05-06T04:04:32.464Z,68.18
2023-05-06T04:06:58.876Z,67.82
2023-05-06T04:09:25.295Z,67.91
2023-05-06T04:11:51.746Z,68.11
2023-05-06T04:14:18.186Z,68.08
2023-05-06T04:16:44.594Z,68.21
2023-05-06T04:19:11.033Z,68.44
2023-05-06T04:21:37.488Z,67.80
2023-05-06T04:24:04.109Z,68.02
2023-05-06T04:26:31.365Z,67.88
2023-05-06T04:28:57.760Z,67.79
2023-05-06T04:31:24.201Z,67.66
2023-05-06T04:33:50.658Z,67.38
2023-05-06T04:36:17.216Z,67.52
2023-05-06T04:38:43.659Z,67.38
2023-05-06T04:41:10.065Z,67.90
2023-05-06T04:43:36.487Z,68.13
2023-05-06T04:46:03.176Z,67.78
2023-05-06T04:48:29.627Z,67.34
2023-05-06T04:50:56.123Z,67.44
2023-05-06T04:53:22.560Z,67.14
2023-05-06T04:55:48.985Z,67.72
2023-05-06T04:58:15.557Z,67.85
2023-05-06T05:00:41.971Z,68.11
2023-05-06T05:03:08.506Z,67.41
2023-05-06T05:05:35.056Z,66.83
2023-05-06T05:08:01.510Z,67.02
2023-05-06T05:10:27.945Z,67.14
2023-05-06T05:12:54.455Z,67.28
2023-05-06T05:15:21.166Z,67.58
2023-05-06T05:17:47.828Z,67.32
2023-05-06T05:20:14.371Z,67.70
2023-05-06T05:22:40.899Z,66.97
2023-05-06T05:25:08.576Z,67.10
2023-05-06T05:27:35.243Z,67.96
2023-05-06T05:30:01.661Z,67.73
2023-05-06T05:32:28.136Z,67.33
2023-05-06T05:34:54.632Z,66.90
2023-05-06T05:37:21.038Z,66.86
2023-05-06T05:39:47.679Z,66.74
2023-05-06T05:42:14.086Z,67.24
2023-05-06T05:44:40.707Z,66.63
2023-05-06T05:47:07.277Z,66.44
2023-05-06T05:49:33.741Z,66.09
2023-05-06T05:52:00.311Z,65.32
2023-05-06T05:54:26.782Z,66.04
2023-05-06T05:56:53.453Z,65.52
2023-05-06T05:59:20.027Z,65.98
2023-05-06T06:01:46.718Z,65.04
2023-05-06T06:04:13.276Z,65.88
2023-05-06T06:06:39.777Z,65.18
2023-05-06T06:09:06.470Z,65.87
2023-05-06T06:11:39.542Z,65.50
2023-05-06T06:14:05.982Z,65.19
2023-05-06T06:16:32.759Z,64.31
2023-05-06T06:18:59.302Z,65.48
2023-05-06T06:21:25.822Z,64.08
2023-05-06T06:23:52.261Z,64.60
2023-05-06T06:26:18.680Z,62.60
2023-05-06T06:28:45.297Z,63.08
2023-05-06T06:31:11.786Z,61.00
2023-05-06T06:33:38.437Z,60.75
2023-05-06T06:36:05.526Z,58.78
2023-05-06T06:38:31.965Z,58.83
2023-05-06T06:40:58.573Z,57.85
2023-05-06T06:43:25.247Z,54.47
2023-05-06T06:45:51.913Z,51.02
2023-05-06T06:48:19.118Z,48.83
2023-05-06T06:50:45.707Z,48.83
2023-05-06T06:53:12.157Z,51.08
2023-05-06T06:55:38.782Z,50.88
2023-05-06T06:58:05.277Z,50.85
2023-05-06T07:00:31.755Z,49.90
2023-05-06T07:02:58.460Z,46.81
2023-05-06T07:05:27.014Z,44.86
2023-05-06T07:07:53.554Z,44.76
2023-05-06T07:10:20.001Z,41.80
2023-05-06T07:12:46.617Z,41.23
2023-05-06T07:15:13.351Z,40.74
2023-05-06T07:17:40.197Z,42.38
2023-05-06T07:20:07.281Z,42.66
2023-05-06T07:22:33.945Z,44.33
2023-05-06T07:25:00.568Z,44.80
2023-05-06T07:27:30.193Z,42.75
2023-05-06T07:29:56.821Z,40.65
2023-05-06T07:32:23.304Z,40.52
2023-05-06T07:34:49.791Z,39.58
2023-05-06T07:37:16.242Z,36.78
2023-05-06T07:39:43.134Z,36.28
2023-05-06T07:42:12.938Z,36.08
2023-05-06T07:44:39.794Z,36.70
2023-05-06T07:47:06.361Z,35.29
2023-05-06T07:49:34.198Z,35.42
2023-05-06T07:52:00.730Z,32.20
2023-05-06T07:54:27.307Z,32.98
2023-05-06T07:56:53.902Z,29.99
2023-05-06T07:59:20.369Z,28.96
2023-05-06T08:01:46.891Z,27.84
2023-05-06T08:04:13.600Z,29.21
2023-05-06T08:06:40.275Z,27.25
2023-05-06T08:09:06.729Z,26.85
2023-05-06T08:11:33.308Z,28.64
2023-05-06T08:13:59.985Z,27.26
2023-05-06T08:16:26.544Z,27.55
2023-05-06T08:18:53.020Z,27.25
2023-05-06T08:21:19.435Z,26.90
2023-05-06T08:23:46.285Z,25.29
2023-05-06T08:26:12.892Z,22.97
2023-05-06T08:28:39.376Z,24.77
2023-05-06T08:31:05.856Z,23.73
2023-05-06T08:33:32.365Z,23.95
2023-05-06T08:35:58.968Z,24.40
2023-05-06T08:38:26.025Z,23.30
2023-05-06T08:40:52.893Z,23.64
2023-05-06T08:43:20.888Z,22.93
2023-05-06T08:45:47.367Z,23.42
2023-05-06T08:48:13.893Z,24.44
2023-05-06T08:50:43.644Z,24.03
2023-05-06T08:53:11.725Z,23.43
2023-05-06T08:55:38.461Z,20.19
2023-05-06T08:58:06.481Z,20.22
2023-05-06T09:00:32.784Z,20.62
2023-05-06T09:02:59.369Z,20.59
2023-05-06T09:05:25.880Z,23.46
2023-05-06T09:07:52.727Z,21.58
2023-05-06T09:10:19.441Z,22.12
2023-05-06T09:12:45.973Z,21.41
2023-05-06T09:15:12.861Z,21.87
2023-05-06T09:17:39.566Z,22.57
2023-05-06T09:20:09.086Z,21.49
2023-05-06T09:22:37.247Z,21.70
2023-05-06T09:25:03.984Z,21.51
2023-05-06T09:27:31.950Z,24.24
2023-05-06T09:30:09.440Z,24.47
2023-05-06T09:32:38.297Z,26.69
2023-05-06T09:35:07.218Z,25.90
2023-05-06T09:37:33.706Z,26.87
2023-05-06T09:40:00.809Z,27.14
2023-05-06T09:42:28.663Z,27.30
2023-05-06T09:44:56.372Z,26.84
2023-05-06T09:47:24.103Z,27.78
2023-05-06T09:49:50.726Z,29.05
2023-05-06T09:52:19.478Z,28.15
2023-05-06T09:54:46.768Z,29.97
2023-05-06T09:57:13.931Z,29.45
2023-05-06T09:59:41.007Z,29.36
2023-05-06T10:02:07.508Z,31.65
2023-05-06T10:04:34.448Z,30.03
2023-05-06T10:07:01.010Z,31.30
2023-05-06T10:09:27.575Z,31.40
2023-05-06T10:11:54.067Z,33.06
2023-05-06T10:14:20.567Z,32.46
2023-05-06T10:16:47.919Z,32.88
2023-05-06T10:19:15.643Z,30.94
2023-05-06T10:21:43.334Z,31.26
2023-05-06T10:24:11.531Z,32.45
2023-05-06T10:26:38.432Z,33.16
2023-05-06T10:29:05.180Z,31.91
2023-05-06T10:31:31.634Z,32.62
2023-05-06T10:33:58.405Z,31.99
2023-05-06T10:36:25.890Z,32.68
2023-05-06T10:38:57.200Z,30.71
2023-05-06T10:41:25.911Z,32.48
2023-05-06T10:43:56.708Z,33.48
2023-05-06T10:46:24.278Z,32.83
2023-05-06T10:49:12.005Z,31.23
2023-05-06T10:51:38.609Z,34.62
2023-05-06T10:54:06.918Z,32.63
2023-05-06T10:56:34.838Z,33.56
2023-05-06T10:59:04.135Z,35.67
2023-05-06T11:01:30.759Z,33.91
2023-05-06T11:03:57.461Z,33.48
2023-05-06T11:06:36.876Z,34.34
2023-05-06T11:09:04.287Z,33.37
2023-05-06T11:11:51.079Z,34.51
2023-05-06T11:14:31.355Z,35.95
2023-05-06T11:16:59.022Z,37.57
2023-05-06T11:19:30.140Z,37.14
2023-05-06T11:21:58.396Z,37.06
2023-05-06T11:24:28.228Z,35.14
2023-05-06T11:26:58.824Z,37.44
2023-05-06T11:29:25.331Z,35.27
2023-05-06T11:31:52.803Z,37.56
2023-05-06T11:34:24.955Z,36.93
2023-05-06T11:37:12.674Z,37.99
2023-05-06T11:39:40.924Z,37.42
2023-05-06T11:42:08.434Z,34.74
2023-05-06T11:44:36.752Z,35.94
2023-05-06T11:47:05.678Z,36.54
2023-05-06T11:49:55.955Z,38.07
2023-05-06T11:52:22.388Z,36.19
2023-05-06T11:54:50.986Z,35.31
2023-05-06T11:57:17.420Z,35.19
2023-05-06T11:59:43.880Z,35.35
2023-05-06T12:02:14.149Z,35.23
2023-05-06T12:04:48.045Z,35.74
2023-05-06T12:07:15.109Z,37.71
2023-05-06T12:09:48.872Z,37.09
2023-05-06T12:12:16.871Z,34.93
2023-05-06T12:14:43.311Z,35.13
2023-05-06T12:17:09.719Z,37.69
2023-05-06T12:19:36.155Z,37.21
2023-05-06T12:22:16.192Z,35.18
2023-05-06T12:24:42.718Z,36.49
2023-05-06T12:27:09.152Z,35.80
2023-05-06T12:29:35.785Z,37.59
2023-05-06T12:32:09.392Z,37.44
2023-05-06T12:34:39.969Z,34.85
2023-05-06T12:37:07.166Z,36.10
2023-05-06T12:39:37.618Z,35.70
2023-05-06T12:42:04.287Z,35.90
2023-05-06T12:44:40.221Z,38.05
2023-05-06T12:47:19.185Z,35.95
2023-05-06T12:49:48.664Z,36.56
2023-05-06T12:52:15.249Z,37.48
2023-05-06T12:54:41.800Z,36.12
2023-05-06T12:57:08.204Z,35.06
2023-05-06T12:59:35.852Z,34.90
2023-05-06T13:02:02.759Z,34.08
2023-05-06T13:04:29.261Z,35.20
2023-05-06T13:06:56.999Z,34.90
2023-05-06T13:09:23.546Z,35.52
2023-05-06T13:11:50.251Z,34.79
2023-05-06T13:14:17.989Z,33.69
2023-05-06T13:16:44.631Z,36.57
2023-05-06T13:19:21.134Z,35.12
2023-05-06T13:21:51.681Z,35.56
2023-05-06T13:24:18.110Z,36.44
2023-05-06T13:26:44.538Z,36.40
2023-05-06T13:29:11.214Z,36.57
2023-05-06T13:31:37.762Z,34.78
2023-05-06T13:34:04.415Z,37.09
2023-05-06T13:36:31.120Z,35.67
2023-05-06T13:38:57.597Z,37.30
2023-05-06T13:41:25.224Z,34.41
2023-05-06T13:43:52.133Z,35.33
2023-05-06T13:46:18.656Z,36.39
2023-05-06T13:48:45.117Z,36.67
2023-05-06T13:51:11.561Z,35.62
2023-05-06T13:53:39.336Z,35.64
2023-05-06T13:56:05.921Z,35.58
2023-05-06T13:58:32.450Z,35.39
2023-05-06T14:00:58.901Z,35.11
2023-05-06T14:03:25.388Z,38.37
2023-05-06T14:05:52.020Z,37.18
2023-05-06T14:08:18.449Z,38.36
2023-05-06T14:10:45.086Z,38.70
2023-05-06T14:13:11.758Z,39.61
2023-05-06T14:15:38.218Z,38.49
2023-05-06T14:18:04.855Z,37.26
2023-05-06T14:20:31.316Z,36.33
2023-05-06T14:22:57.973Z,36.94
2023-05-06T14:25:27.678Z,37.17
2023-05-06T14:27:54.680Z,37.74
2023-05-06T14:30:21.387Z,36.68
2023-05-06T14:32:47.822Z,37.95
2023-05-06T14:35:14.453Z,36.63
2023-05-06T14:37:40.910Z,35.92
2023-05-06T14:40:07.973Z,35.61
2023-05-06T14:42:35.843Z,36.95
2023-05-06T14:45:02.460Z,36.62
2023-05-06T14:47:29.006Z,37.32
2023-05-06T14:49:55.488Z,37.13
2023-05-06T14:52:21.970Z,37.54
2023-05-06T14:54:48.429Z,36.32
2023-05-06T14:57:14.863Z,36.70
2023-05-06T14:59:41.300Z,37.53
2023-05-06T15:02:08.608Z,37.34
2023-05-06T15:04:35.263Z,37.28
2023-05-06T15:07:02.114Z,37.61
2023-05-06T15:09:28.583Z,38.25
2023-05-06T15:11:55.035Z,41.35
2023-05-06T15:14:21.454Z,41.89
2023-05-06T15:16:47.937Z,45.16
2023-05-06T15:19:14.430Z,45.11
2023-05-06T15:21:41.064Z,44.28
2023-05-06T15:24:08.073Z,45.06
2023-05-06T15:26:34.710Z,46.99
2023-05-06T15:29:01.192Z,49.03
2023-05-06T15:31:27.859Z,48.74
2023-05-06T15:33:54.397Z,50.53
2023-05-06T15:36:20.873Z,53.04
2023-05-06T15:38:53.360Z,53.85
2023-05-06T15:41:19.881Z,53.06
2023-05-06T15:43:46.908Z,53.47
2023-05-06T15:46:13.397Z,51.59
2023-05-06T15:48:39.884Z,54.34
2023-05-06T15:51:06.369Z,54.98
2023-05-06T15:53:32.884Z,54.01
2023-05-06T15:56:13.127Z,53.89
2023-05-06T15:58:41.661Z,55.57
2023-05-06T16:01:08.992Z,55.84
2023-05-06T16:03:36.657Z,55.22
2023-05-06T16:06:03.924Z,54.03
2023-05-06T16:08:30.544Z,53.95
2023-05-06T16:10:57.200Z,55.31
2023-05-06T16:13:23.850Z,55.67
2023-05-06T16:15:50.608Z,57.86
2023-05-06T16:18:17.305Z,57.41
2023-05-06T16:20:43.968Z,57.78
2023-05-06T16:23:10.453Z,58.68
2023-05-06T16:25:38.245Z,60.00
2023-05-06T16:28:05.622Z,58.00
2023-05-06T16:30:32.219Z,56.54
2023-05-06T16:32:58.880Z,58.80
2023-05-06T16:35:25.430Z,61.54
2023-05-06T16:37:51.995Z,62.59
2023-05-06T16:40:20.495Z,63.12
2023-05-06T16:42:50.205Z,62.21
2023-05-06T16:45:16.768Z,61.55
2023-05-06T16:47:43.473Z,58.02
2023-05-06T16:50:11.252Z,60.49
2023-05-06T16:52:37.835Z,61.54
2023-05-06T16:55:04.592Z,62.27
2023-05-06T16:57:31.076Z,62.82
2023-05-06T16:59:57.753Z,63.26
2023-05-06T17:02:24.306Z,63.84
2023-05-06T17:04:51.938Z,64.75
2023-05-06T17:07:18.379Z,62.59
2023-05-06T17:09:44.811Z,62.93
2023-05-06T17:12:11.257Z,62.43
2023-05-06T17:14:37.711Z,62.66
2023-05-06T17:17:05.258Z,63.20
2023-05-06T17:19:32.015Z,62.98
2023-05-06T17:21:58.465Z,63.26
2023-05-06T17:24:24.913Z,63.10
2023-05-06T17:26:51.327Z,58.05
2023-05-06T17:29:17.816Z,60.90
2023-05-06T17:31:44.239Z,59.52
2023-05-06T17:34:10.828Z,59.83
2023-05-06T17:36:37.347Z,58.43
2023-05-06T17:39:04.688Z,56.07
2023-05-06T17:41:31.637Z,54.71
2023-05-06T17:43:58.097Z,52.51
2023-05-06T17:46:24.681Z,58.37
2023-05-06T17:48:51.131Z,57.68
2023-05-06T17:51:18.274Z,57.81
2023-05-06T17:53:45.053Z,58.61
2023-05-06T17:56:11.551Z,59.78
2023-05-06T17:58:38.047Z,61.30
2023-05-06T18:01:04.485Z,62.07
2023-05-06T18:03:31.045Z,62.83
2023-05-06T18:05:58.305Z,62.96
2023-05-06T18:08:24.766Z,61.81
2023-05-06T18:10:51.275Z,60.26
2023-05-06T18:13:17.743Z,61.75
2023-05-06T18:15:44.307Z,62.48
2023-05-06T18:18:10.831Z,63.49
2023-05-06T18:20:37.328Z,62.68
2023-05-06T18:23:03.734Z,62.53
2023-05-06T18:25:30.194Z,63.02
2023-05-06T18:27:56.864Z,63.44
2023-05-06T18:30:23.587Z,62.99
2023-05-06T18:32:51.784Z,62.56
2023-05-06T18:35:19.660Z,62.61
2023-05-06T18:37:46.345Z,62.31
2023-05-06T18:40:14.350Z,62.41
2023-05-06T18:42:41.434Z,62.44
2023-05-06T18:45:08.475Z,63.21
2023-05-06T18:47:36.927Z,63.25
2023-05-06T18:50:03.729Z,63.22
2023-05-06T18:52:30.259Z,62.98
2023-05-06T18:54:56.661Z,62.90
2023-05-06T18:57:24.230Z,62.70
2023-05-06T18:59:50.906Z,62.24
2023-05-06T19:02:17.312Z,63.94
2023-05-06T19:04:43.826Z,62.29
2023-05-06T19:07:11.068Z,62.04
2023-05-06T19:09:37.534Z,63.25
2023-05-06T19:12:04.268Z,63.02
2023-05-06T19:14:32.295Z,62.96
2023-05-06T19:16:58.905Z,62.70
2023-05-06T19:19:25.583Z,62.27
2023-05-06T19:21:52.048Z,62.80
2023-05-06T19:24:18.468Z,62.71
2023-05-06T19:26:45.112Z,62.45
2023-05-06T19:29:11.624Z,63.20
2023-05-06T19:31:38.193Z,63.76
2023-05-06T19:34:04.709Z,63.86
2023-05-06T19:36:31.632Z,63.89
2023-05-06T19:38:58.226Z,63.40
2023-05-06T19:41:24.796Z,63.47
2023-05-06T19:43:53.114Z,63.37
2023-05-06T19:46:19.605Z,63.32
2023-05-06T19:48:46.305Z,63.70
2023-05-06T19:51:12.929Z,63.43
2023-05-06T19:53:39.341Z,63.74
2023-05-06T19:56:12.078Z,63.57
2023-05-06T19:58:38.882Z,63.46
2023-05-06T20:01:05.489Z,63.78
2023-05-06T20:03:32.279Z,63.62
2023-05-06T20:05:58.990Z,63.80
2023-05-06T20:08:25.915Z,63.51
2023-05-06T20:10:52.363Z,63.46
2023-05-06T20:13:18.879Z,63.27
2023-05-06T20:15:45.738Z,63.50
2023-05-06T20:18:12.475Z,63.62
2023-05-06T20:20:39.780Z,63.80
2023-05-06T20:23:06.211Z,63.66
2023-05-06T20:25:32.770Z,63.27
2023-05-06T20:27:59.351Z,63.68
2023-05-06T20:30:26.374Z,63.67
2023-05-06T20:32:52.877Z,63.61
2023-05-06T20:35:19.398Z,64.09
2023-05-06T20:37:45.882Z,63.88
2023-05-06T20:40:12.803Z,63.93
2023-05-06T20:42:39.435Z,63.97
2023-05-06T20:45:06.436Z,63.79
2023-05-06T20:47:36.528Z,63.88
2023-05-06T20:50:03.172Z,64.35
2023-05-06T20:52:29.835Z,64.31
2023-05-06T20:54:56.486Z,64.20
2023-05-06T20:57:23.217Z,65.05
2023-05-06T20:59:51.022Z,65.36
2023-05-06T21:02:17.548Z,65.76
2023-05-06T21:04:43.976Z,66.30
2023-05-06T21:07:10.403Z,65.84
2023-05-06T21:09:38.045Z,64.89
2023-05-06T21:12:04.787Z,65.15
2023-05-06T21:14:31.456Z,64.88
2023-05-06T21:16:57.901Z,65.25
2023-05-06T21:19:24.437Z,64.88
2023-05-06T21:21:51.318Z,64.81
2023-05-06T21:24:17.813Z,64.95
2023-05-06T21:26:44.270Z,64.60
2023-05-06T21:29:10.696Z,64.84
2023-05-06T21:31:37.254Z,65.30
2023-05-06T21:34:07.168Z,64.91
2023-05-06T21:36:34.710Z,65.14
2023-05-06T21:39:05.786Z,64.55
2023-05-06T21:41:34.203Z,64.81
2023-05-06T21:44:00.634Z,64.82
2023-05-06T21:46:27.095Z,64.79
2023-05-06T21:48:53.525Z,64.31
2023-05-06T21:51:19.938Z,64.15
2023-05-06T21:53:50.052Z,64.17
2023-05-06T21:56:17.470Z,64.39
2023-05-06T21:58:44.044Z,64.09
2023-05-06T22:01:10.485Z,64.06
2023-05-06T22:03:37.038Z,64.14
2023-05-06T22:06:04.252Z,64.56
2023-05-06T22:08:30.692Z,64.64
2023-05-06T22:10:57.858Z,64.85
2023-05-06T22:13:26.461Z,64.88
2023-05-06T22:15:53.264Z,64.45
2023-05-06T22:18:19.783Z,64.64
2023-05-06T22:20:46.628Z,64.66
2023-05-06T22:23:13.359Z,64.92
2023-05-06T22:25:39.775Z,65.05
2023-05-06T22:28:06.284Z,64.98
2023-05-06T22:30:32.690Z,65.15
2023-05-06T22:32:59.144Z,64.67
2023-05-06T22:35:25.698Z,64.52
2023-05-06T22:37:52.172Z,64.29
2023-05-06T22:40:18.612Z,64.49
2023-05-06T22:42:45.040Z,64.85
2023-05-06T22:45:11.710Z,64.75
2023-05-06T22:47:38.516Z,64.54
2023-05-06T22:50:06.610Z,64.95
2023-05-06T22:52:33.097Z,65.22
2023-05-06T22:54:59.602Z,65.11
2023-05-06T22:57:26.225Z,64.89
2023-05-06T22:59:52.696Z,64.96
2023-05-06T23:02:19.407Z,64.85
2023-05-06T23:04:45.816Z,64.78
2023-05-06T23:07:13.720Z,64.57
2023-05-06T23:09:40.286Z,64.88
2023-05-06T23:12:06.816Z,64.62
2023-05-06T23:14:33.259Z,64.14
2023-05-06T23:16:59.706Z,64.57
2023-05-06T23:19:26.832Z,64.26
2023-05-06T23:21:53.235Z,64.58
2023-05-06T23:24:19.638Z,64.62
2023-05-06T23:26:46.034Z,64.48
2023-05-06T23:29:12.466Z,64.52
2023-05-06T23:31:38.898Z,64.49
2023-05-06T23:34:05.288Z,64.14
2023-05-06T23:36:31.703Z,64.08
2023-05-06T23:38:58.158Z,64.24
2023-05-06T23:41:24.578Z,64.71
2023-05-06T23:43:51.098Z,64.23
2023-05-06T23:46:17.511Z,64.25
2023-05-06T23:48:43.984Z,63.95
2023-05-06T23:51:10.551Z,64.37
2023-05-06T23:53:37.198Z,64.23
2023-05-06T23:56:03.813Z,64.57
2023-05-06T23:58:30.226Z,64.57
